createdAt,value
2023-02-26T00:00:26.498Z,-2.91
2023-02-26T00:02:54.630Z,-2.89
2023-02-26T00:05:22.514Z,-2.86
2023-02-26T00:07:50.368Z,-2.84
2023-02-26T00:10:18.568Z,-2.83
2023-02-26T00:12:48.617Z,-2.81
2023-02-26T00:15:18.399Z,-2.80
2023-02-26T00:17:54.733Z,-2.77
2023-02-26T00:20:23.922Z,-2.83
2023-02-26T00:22:52.325Z,-2.73
2023-02-26T00:25:20.312Z,-2.70
2023-02-26T00:27:50.239Z,-2.67
2023-02-26T00:30:18.920Z,-2.65
2023-02-26T00:32:47.770Z,-2.62
2023-02-26T00:35:17.279Z,-2.62
2023-02-26T00:37:59.268Z,-2.59
2023-02-26T00:40:36.332Z,-2.60
2023-02-26T00:43:07.569Z,-2.64
2023-02-26T00:45:36.566Z,-2.69
2023-02-26T00:48:39.480Z,-2.82
2023-02-26T00:51:16.391Z,-2.74
2023-02-26T00:53:51.168Z,-2.75
2023-02-26T00:56:19.181Z,-2.73
2023-02-26T00:58:48.439Z,-2.72
2023-02-26T01:01:16.521Z,-2.93
2023-02-26T01:03:44.787Z,-2.70
2023-02-26T01:06:16.511Z,-3.14
2023-02-26T01:08:52.408Z,-2.72
2023-02-26T01:11:20.708Z,-2.76
2023-02-26T01:13:50.624Z,-2.81
2023-02-26T01:16:23.530Z,-3.00
2023-02-26T01:18:57.307Z,-3.01
2023-02-26T01:21:32.410Z,-3.08
2023-02-26T01:24:03.169Z,-3.02
2023-02-26T01:26:31.313Z,-3.04
2023-02-26T01:29:01.195Z,-3.11
2023-02-26T01:31:39.636Z,-3.12
2023-02-26T01:34:12.960Z,-3.17
2023-02-26T01:36:47.355Z,-3.19
2023-02-26T01:39:20.916Z,-3.29
2023-02-26T01:41:52.210Z,-3.26
2023-02-26T01:44:27.683Z,-3.28
2023-02-26T01:47:10.508Z,-3.30
2023-02-26T01:49:39.331Z,-3.85
2023-02-26T01:52:08.645Z,-3.47
2023-02-26T01:54:38.466Z,-3.33
2023-02-26T01:57:09.428Z,-3.47
2023-02-26T01:59:42.302Z,-3.29
2023-02-26T02:02:13.296Z,-3.50
2023-02-26T02:04:42.406Z,-2.97
2023-02-26T02:07:10.965Z,-3.44
2023-02-26T02:09:39.105Z,-2.77
2023-02-26T02:12:23.386Z,-2.68
2023-02-26T02:15:05.014Z,-2.68
2023-02-26T02:17:46.197Z,-2.49
2023-02-26T02:20:53.578Z,-2.40
2023-02-26T02:23:29.704Z,-2.50
2023-02-26T02:26:36.420Z,-2.35
2023-02-26T02:29:22.974Z,-2.30
2023-02-26T02:31:57.006Z,-2.23
2023-02-26T02:34:30.940Z,-2.12
2023-02-26T02:37:02.733Z,-2.08
2023-02-26T02:39:35.691Z,-2.05
2023-02-26T02:42:09.267Z,-2.02
2023-02-26T02:44:42.308Z,-1.99
2023-02-26T02:47:13.918Z,-1.99
2023-02-26T02:49:46.867Z,-1.98
2023-02-26T02:52:20.589Z,-1.99
2023-02-26T02:54:52.569Z,-1.98
2023-02-26T02:57:24.249Z,-1.99
2023-02-26T02:59:58.644Z,-2.00
2023-02-26T03:02:31.981Z,-2.20
2023-02-26T03:05:00.149Z,-2.12
2023-02-26T03:07:28.205Z,-2.17
2023-02-26T03:09:56.335Z,-2.23
2023-02-26T03:12:27.125Z,-2.29
2023-02-26T03:14:55.061Z,-2.35
2023-02-26T03:17:33.709Z,-2.41
2023-02-26T03:20:11.388Z,-2.49
2023-02-26T03:22:46.766Z,-2.69
2023-02-26T03:25:20.033Z,-2.63
2023-02-26T03:27:53.672Z,-2.83
2023-02-26T03:30:27.631Z,-2.73
2023-02-26T03:33:04.271Z,-2.76
2023-02-26T03:35:39.979Z,-2.79
2023-02-26T03:38:12.141Z,-2.85
2023-02-26T03:40:44.758Z,-2.88
2023-02-26T03:43:19.244Z,-3.12
2023-02-26T03:45:50.620Z,-3.05
2023-02-26T03:48:25.326Z,-2.99
2023-02-26T03:50:56.630Z,-3.13
2023-02-26T03:53:28.214Z,-3.06
2023-02-26T03:56:03.098Z,-3.09
2023-02-26T03:58:31.372Z,-3.51
2023-02-26T04:01:04.403Z,-3.14
2023-02-26T04:03:40.283Z,-3.15
2023-02-26T04:06:08.895Z,-3.16
2023-02-26T04:08:37.312Z,-3.18
2023-02-26T04:11:09.473Z,-3.20
2023-02-26T04:13:37.292Z,-3.29
2023-02-26T04:16:05.914Z,-3.27
2023-02-26T04:18:35.272Z,-3.34
2023-02-26T04:21:03.173Z,-3.34
2023-02-26T04:23:31.339Z,-3.36
2023-02-26T04:25:59.307Z,-3.39
2023-02-26T04:28:27.132Z,-3.43
2023-02-26T04:30:55.134Z,-3.46
2023-02-26T04:33:23.375Z,-3.57
2023-02-26T04:35:52.564Z,-3.51
2023-02-26T04:38:20.549Z,-3.53
2023-02-26T04:40:48.614Z,-3.55
2023-02-26T04:43:16.450Z,-3.70
2023-02-26T04:45:46.683Z,-3.57
2023-02-26T04:48:14.928Z,-4.12
2023-02-26T04:50:43.120Z,-3.67
2023-02-26T04:53:12.376Z,-3.53
2023-02-26T04:55:41.551Z,-3.66
2023-02-26T04:58:10.108Z,-3.90
2023-02-26T05:00:38.242Z,-3.47
2023-02-26T05:03:06.243Z,-3.45
2023-02-26T05:05:34.336Z,-3.43
2023-02-26T05:08:02.280Z,-3.39
2023-02-26T05:10:31.592Z,-3.36
2023-02-26T05:12:59.474Z,-3.35
2023-02-26T05:15:27.466Z,-3.44
2023-02-26T05:17:55.417Z,-3.32
2023-02-26T05:20:23.439Z,-3.30
2023-02-26T05:22:51.443Z,-3.27
2023-02-26T05:25:19.686Z,-3.27
2023-02-26T05:27:49.106Z,-3.25
2023-02-26T05:30:18.215Z,-3.39
2023-02-26T05:32:46.213Z,-3.23
2023-02-26T05:35:14.219Z,-3.39
2023-02-26T05:37:42.217Z,-3.21
2023-02-26T05:40:11.972Z,-3.19
2023-02-26T05:42:40.292Z,-3.17
2023-02-26T05:45:11.093Z,-3.19
2023-02-26T05:47:39.552Z,-3.12
2023-02-26T05:50:08.658Z,-3.09
2023-02-26T05:52:36.570Z,-3.07
2023-02-26T05:55:04.956Z,-3.17
2023-02-26T05:57:32.790Z,-3.03
2023-02-26T06:00:00.830Z,-3.02
2023-02-26T06:02:30.161Z,-2.99
2023-02-26T06:04:58.014Z,-2.97
2023-02-26T06:07:25.950Z,-2.93
2023-02-26T06:09:54.083Z,-2.91
2023-02-26T06:12:22.046Z,-2.97
2023-02-26T06:14:49.994Z,-2.88
2023-02-26T06:17:17.936Z,-2.86
2023-02-26T06:19:47.124Z,-2.97
2023-02-26T06:22:15.109Z,-2.86
2023-02-26T06:24:43.131Z,-3.46
2023-02-26T06:27:11.018Z,-2.86
2023-02-26T06:29:39.243Z,-2.89
2023-02-26T06:32:07.839Z,-2.91
2023-02-26T06:34:35.784Z,-2.95
2023-02-26T06:37:05.192Z,-2.98
2023-02-26T06:39:33.850Z,-2.97
2023-02-26T06:42:01.702Z,-3.27
2023-02-26T06:44:29.644Z,-2.98
2023-02-26T06:46:57.634Z,-2.97
2023-02-26T06:49:25.499Z,-2.98
2023-02-26T06:51:53.402Z,-2.99
2023-02-26T06:54:22.734Z,-2.99
2023-02-26T06:56:50.627Z,-2.99
2023-02-26T06:59:18.571Z,-3.05
2023-02-26T07:01:46.589Z,-3.25
2023-02-26T07:04:14.396Z,-2.87
2023-02-26T07:06:42.655Z,-2.78
2023-02-26T07:09:10.771Z,-2.65
2023-02-26T07:11:40.070Z,-2.55
2023-02-26T07:14:07.983Z,-2.47
2023-02-26T07:16:36.007Z,-2.44
2023-02-26T07:19:03.852Z,-2.44
2023-02-26T07:21:31.931Z,-2.43
2023-02-26T07:23:59.876Z,-2.43
2023-02-26T07:26:28.049Z,-1.95
2023-02-26T07:28:57.575Z,-1.47
2023-02-26T07:31:25.666Z,-0.98
2023-02-26T07:33:53.645Z,-0.37
2023-02-26T07:36:21.707Z,0.25
2023-02-26T07:38:49.633Z,0.53
2023-02-26T07:41:17.485Z,0.79
2023-02-26T07:43:45.391Z,0.70
2023-02-26T07:46:14.895Z,0.50
2023-02-26T07:48:42.777Z,0.30
2023-02-26T07:51:11.195Z,0.13
2023-02-26T07:53:39.254Z,-0.06
2023-02-26T07:56:07.112Z,-0.17
2023-02-26T07:58:35.012Z,-0.14
2023-02-26T08:01:03.038Z,-0.24
2023-02-26T08:03:32.604Z,-0.53
2023-02-26T08:06:00.979Z,-0.59
2023-02-26T08:08:29.172Z,-0.70
2023-02-26T08:10:57.045Z,-1.01
2023-02-26T08:13:24.986Z,-0.69
2023-02-26T08:15:53.039Z,-1.13
2023-02-26T08:18:21.027Z,-0.83
2023-02-26T08:20:52.154Z,-0.91
2023-02-26T08:23:20.127Z,-1.00
2023-02-26T08:25:49.010Z,-0.48
2023-02-26T08:28:17.225Z,-0.41
2023-02-26T08:30:45.214Z,-0.32
2023-02-26T08:33:13.047Z,-0.36
2023-02-26T08:35:40.968Z,-0.20
2023-02-26T08:38:10.345Z,-0.13
2023-02-26T08:40:38.185Z,-0.21
2023-02-26T08:43:06.131Z,-0.02
2023-02-26T08:45:34.057Z,0.26
2023-02-26T08:48:01.925Z,0.65
2023-02-26T08:50:29.953Z,0.85
2023-02-26T08:52:58.239Z,0.83
2023-02-26T08:55:27.513Z,0.76
2023-02-26T08:57:55.494Z,0.67
2023-02-26T09:00:23.965Z,0.70
2023-02-26T09:02:52.093Z,0.73
2023-02-26T09:05:20.463Z,0.78
2023-02-26T09:07:48.488Z,0.81
2023-02-26T09:10:16.877Z,0.98
2023-02-26T09:12:46.813Z,1.06
2023-02-26T09:15:15.745Z,1.05
2023-02-26T09:17:44.095Z,1.14
2023-02-26T09:20:13.772Z,0.87
2023-02-26T09:22:41.724Z,1.25
2023-02-26T09:25:10.427Z,1.09
2023-02-26T09:27:38.500Z,1.27
2023-02-26T09:30:09.169Z,0.81
2023-02-26T09:32:38.081Z,1.34
2023-02-26T09:35:06.611Z,1.29
2023-02-26T09:37:35.105Z,1.21
2023-02-26T09:40:03.405Z,1.33
2023-02-26T09:42:45.923Z,1.36
2023-02-26T09:45:26.818Z,0.87
2023-02-26T09:47:56.418Z,1.38
2023-02-26T09:50:27.301Z,1.32
2023-02-26T09:53:02.855Z,1.43
2023-02-26T09:55:35.410Z,1.43
2023-02-26T09:58:06.268Z,1.54
2023-02-26T10:00:39.581Z,1.65
2023-02-26T10:03:22.901Z,1.91
2023-02-26T10:06:10.504Z,1.89
2023-02-26T10:08:48.383Z,2.31
2023-02-26T10:11:28.540Z,2.72
2023-02-26T10:14:01.836Z,2.82
2023-02-26T10:16:36.447Z,2.93
2023-02-26T10:19:07.592Z,3.06
2023-02-26T10:21:40.631Z,3.56
2023-02-26T10:24:15.312Z,4.06
2023-02-26T10:26:51.267Z,4.41
2023-02-26T10:29:25.409Z,4.52
2023-02-26T10:32:19.322Z,5.52
2023-02-26T10:34:53.009Z,5.63
2023-02-26T10:37:25.351Z,5.55
2023-02-26T10:39:57.318Z,5.43
2023-02-26T10:42:29.723Z,4.77
2023-02-26T10:45:12.739Z,5.44
2023-02-26T10:47:50.973Z,5.14
2023-02-26T10:50:22.148Z,5.03
2023-02-26T10:52:52.588Z,4.96
2023-02-26T10:55:32.675Z,5.01
2023-02-26T10:58:06.155Z,4.77
2023-02-26T11:00:36.474Z,4.33
2023-02-26T11:03:08.435Z,4.05
2023-02-26T11:05:36.560Z,3.87
2023-02-26T11:08:11.987Z,3.76
2023-02-26T11:10:48.729Z,3.66
2023-02-26T11:13:16.672Z,3.61
2023-02-26T11:15:50.251Z,3.55
2023-02-26T11:18:23.220Z,3.42
2023-02-26T11:20:54.249Z,3.38
2023-02-26T11:23:25.929Z,3.44
2023-02-26T11:26:02.397Z,3.56
2023-02-26T11:28:36.067Z,3.50
2023-02-26T11:31:08.001Z,3.64
2023-02-26T11:33:40.217Z,3.63
2023-02-26T11:36:12.832Z,3.44
2023-02-26T11:38:41.791Z,3.05
2023-02-26T11:41:10.492Z,3.35
2023-02-26T11:43:44.877Z,3.35
2023-02-26T11:46:14.406Z,3.36
2023-02-26T11:48:47.460Z,3.36
2023-02-26T11:51:19.948Z,3.43
2023-02-26T11:53:52.340Z,3.43
2023-02-26T11:56:28.411Z,3.37
2023-02-26T11:58:56.987Z,3.43
2023-02-26T12:01:29.351Z,3.23
2023-02-26T12:04:03.229Z,3.43
2023-02-26T12:06:31.517Z,3.35
2023-02-26T12:09:00.200Z,3.38
2023-02-26T12:11:46.476Z,3.42
2023-02-26T12:14:30.516Z,3.53
2023-02-26T12:17:11.840Z,3.57
2023-02-26T12:19:50.228Z,3.56
2023-02-26T12:22:37.474Z,3.41
2023-02-26T12:25:23.627Z,3.26
2023-02-26T12:28:10.173Z,3.22
2023-02-26T12:31:05.285Z,3.03
2023-02-26T12:33:45.075Z,3.11
2023-02-26T12:36:36.364Z,3.05
2023-02-26T12:39:30.930Z,2.97
2023-02-26T12:42:12.014Z,3.14
2023-02-26T12:45:01.487Z,2.35
2023-02-26T12:47:39.365Z,3.26
2023-02-26T12:50:20.060Z,2.84
2023-02-26T12:53:11.369Z,3.11
2023-02-26T12:55:53.526Z,2.86
2023-02-26T12:58:55.660Z,2.88
2023-02-26T13:01:59.537Z,2.61
2023-02-26T13:05:01.622Z,2.79
2023-02-26T13:07:54.295Z,2.82
2023-02-26T13:10:31.988Z,2.87
2023-02-26T13:13:15.499Z,2.94
2023-02-26T13:15:55.506Z,2.91
2023-02-26T13:18:30.487Z,2.86
2023-02-26T13:21:02.484Z,2.67
2023-02-26T13:23:38.666Z,2.84
2023-02-26T13:26:10.803Z,2.85
2023-02-26T13:28:43.814Z,2.87
2023-02-26T13:31:17.141Z,2.84
2023-02-26T13:33:46.605Z,2.98
2023-02-26T13:36:16.922Z,3.07
2023-02-26T13:39:04.922Z,2.80
2023-02-26T13:41:45.685Z,2.99
2023-02-26T13:44:26.364Z,2.99
2023-02-26T13:47:17.082Z,2.92
2023-02-26T13:49:57.345Z,2.83
2023-02-26T13:52:27.502Z,2.73
2023-02-26T13:54:59.511Z,2.53
2023-02-26T13:57:44.853Z,2.51
2023-02-26T14:00:28.405Z,2.42
2023-02-26T14:02:58.854Z,2.30
2023-02-26T14:05:36.973Z,2.26
2023-02-26T14:08:24.045Z,2.28
2023-02-26T14:11:00.085Z,2.28
2023-02-26T14:13:36.229Z,2.21
2023-02-26T14:16:13.282Z,2.16
2023-02-26T14:18:51.366Z,2.20
2023-02-26T14:21:39.443Z,2.18
2023-02-26T14:24:16.602Z,2.18
2023-02-26T14:26:49.331Z,2.15
2023-02-26T14:29:22.832Z,2.12
2023-02-26T14:32:14.162Z,1.79
2023-02-26T14:34:50.301Z,2.06
2023-02-26T14:37:22.991Z,2.07
2023-02-26T14:39:56.415Z,2.08
2023-02-26T14:42:35.595Z,1.96
2023-02-26T14:45:15.323Z,1.97
2023-02-26T14:47:44.839Z,2.17
2023-02-26T14:50:16.429Z,2.04
2023-02-26T14:53:08.733Z,2.14
2023-02-26T14:55:55.277Z,2.09
2023-02-26T14:58:47.356Z,1.91
2023-02-26T15:01:29.312Z,2.00
2023-02-26T15:04:15.223Z,2.12
2023-02-26T15:07:07.450Z,2.06
2023-02-26T15:09:49.468Z,2.01
2023-02-26T15:12:31.012Z,2.20
2023-02-26T15:15:20.426Z,2.19
2023-02-26T15:18:04.749Z,2.18
2023-02-26T15:20:41.927Z,2.18
2023-02-26T15:23:26.095Z,2.10
2023-02-26T15:25:57.370Z,1.74
2023-02-26T15:28:30.204Z,2.25
2023-02-26T15:31:02.312Z,2.30
2023-02-26T15:33:30.426Z,2.28
2023-02-26T15:35:59.919Z,2.21
2023-02-26T15:38:28.487Z,2.13
2023-02-26T15:41:05.381Z,1.66
2023-02-26T15:43:33.437Z,1.95
2023-02-26T15:46:03.705Z,1.82
2023-02-26T15:48:37.580Z,1.72
2023-02-26T15:51:08.200Z,1.23
2023-02-26T15:53:41.186Z,1.01
2023-02-26T15:56:13.023Z,1.11
2023-02-26T15:58:46.238Z,1.21
2023-02-26T16:01:19.265Z,1.14
2023-02-26T16:03:50.955Z,1.04
2023-02-26T16:06:21.599Z,0.84
2023-02-26T16:08:49.524Z,0.85
2023-02-26T16:11:18.828Z,0.33
2023-02-26T16:13:49.417Z,0.54
2023-02-26T16:16:23.644Z,0.64
2023-02-26T16:18:53.058Z,0.24
2023-02-26T16:21:29.023Z,0.50
2023-02-26T16:23:59.002Z,0.36
2023-02-26T16:26:31.431Z,0.00
2023-02-26T16:29:03.011Z,0.19
2023-02-26T16:31:37.219Z,0.30
2023-02-26T16:34:08.828Z,0.24
2023-02-26T16:36:41.448Z,0.19
2023-02-26T16:39:18.255Z,0.15
2023-02-26T16:41:49.766Z,-0.17
2023-02-26T16:44:40.867Z,0.07
2023-02-26T16:47:11.901Z,0.02
2023-02-26T16:49:42.749Z,-0.45
2023-02-26T16:52:18.058Z,-0.05
2023-02-26T16:54:56.057Z,-0.10
2023-02-26T16:57:30.426Z,-0.29
2023-02-26T17:00:04.964Z,-0.58
2023-02-26T17:02:38.055Z,-0.26
2023-02-26T17:05:15.879Z,-0.28
2023-02-26T17:07:49.364Z,-0.86
2023-02-26T17:10:22.752Z,-0.36
2023-02-26T17:12:52.973Z,-0.38
2023-02-26T17:15:27.990Z,-1.28
2023-02-26T17:17:58.306Z,-1.06
2023-02-26T17:20:27.714Z,-0.72
2023-02-26T17:22:56.414Z,-0.54
2023-02-26T17:25:25.430Z,-0.67
2023-02-26T17:27:53.880Z,-0.61
2023-02-26T17:30:25.684Z,-0.64
2023-02-26T17:32:53.723Z,-0.66
2023-02-26T17:35:22.939Z,-1.31
2023-02-26T17:37:52.245Z,-0.70
2023-02-26T17:40:23.016Z,-0.72
2023-02-26T17:42:52.044Z,-0.73
2023-02-26T17:45:21.200Z,-0.76
2023-02-26T17:47:50.267Z,-0.89
2023-02-26T17:50:36.629Z,-0.91
2023-02-26T17:53:06.375Z,-0.96
2023-02-26T17:55:35.736Z,-0.88
2023-02-26T17:58:04.137Z,-0.90
2023-02-26T18:00:33.607Z,-0.91
2023-02-26T18:03:01.473Z,-1.06
2023-02-26T18:05:32.880Z,-0.95
2023-02-26T18:08:01.092Z,-0.96
2023-02-26T18:10:28.862Z,-1.00
2023-02-26T18:12:56.733Z,-1.01
2023-02-26T18:15:25.599Z,-1.33
2023-02-26T18:17:53.506Z,-1.07
2023-02-26T18:20:23.455Z,-1.09
2023-02-26T18:22:52.881Z,-1.27
2023-02-26T18:25:20.737Z,-1.14
2023-02-26T18:27:54.702Z,-1.14
2023-02-26T18:30:25.228Z,-1.20
2023-02-26T18:32:53.188Z,-1.16
2023-02-26T18:35:21.230Z,-2.03
2023-02-26T18:37:50.346Z,-1.16
2023-02-26T18:40:22.845Z,-1.16
2023-02-26T18:42:51.678Z,-1.17
2023-02-26T18:45:20.704Z,-1.25
2023-02-26T18:47:49.552Z,-1.19
2023-02-26T18:50:18.955Z,-1.22
2023-02-26T18:52:46.857Z,-1.32
2023-02-26T18:55:15.787Z,-1.29
2023-02-26T18:57:45.224Z,-1.39
2023-02-26T19:00:15.490Z,-1.94
2023-02-26T19:02:45.589Z,-1.27
2023-02-26T19:05:14.598Z,-1.27
2023-02-26T19:07:42.822Z,-1.29
2023-02-26T19:10:14.765Z,-1.29
2023-02-26T19:12:44.919Z,-1.89
2023-02-26T19:15:14.308Z,-2.36
2023-02-26T19:17:43.104Z,-1.32
2023-02-26T19:20:12.620Z,-1.47
2023-02-26T19:22:42.030Z,-1.36
2023-02-26T19:25:10.711Z,-1.55
2023-02-26T19:27:39.661Z,-1.39
2023-02-26T19:30:10.682Z,-1.81
2023-02-26T19:32:38.739Z,-1.42
2023-02-26T19:35:08.237Z,-1.43
2023-02-26T19:37:36.260Z,-1.43
2023-02-26T19:40:08.783Z,-1.47
2023-02-26T19:42:36.914Z,-1.49
2023-02-26T19:45:05.852Z,-1.48
2023-02-26T19:47:35.305Z,-1.50
2023-02-26T19:50:03.460Z,-1.52
2023-02-26T19:52:31.850Z,-1.55
2023-02-26T19:54:59.919Z,-1.57
2023-02-26T19:57:28.807Z,-1.90
2023-02-26T19:59:57.008Z,-1.77
2023-02-26T20:02:25.034Z,-1.63
2023-02-26T20:04:55.124Z,-1.66
2023-02-26T20:07:23.082Z,-1.67
2023-02-26T20:09:51.082Z,-1.70
2023-02-26T20:12:19.106Z,-1.71
2023-02-26T20:14:46.919Z,-1.73
2023-02-26T20:17:14.935Z,-1.75
2023-02-26T20:19:44.510Z,-1.82
2023-02-26T20:22:13.880Z,-1.91
2023-02-26T20:24:41.820Z,-1.78
2023-02-26T20:27:09.755Z,-1.78
2023-02-26T20:29:37.593Z,-2.06
2023-02-26T20:32:06.351Z,-2.21
2023-02-26T20:34:34.364Z,-1.82
2023-02-26T20:37:02.176Z,-1.71
2023-02-26T20:39:31.719Z,-1.71
2023-02-26T20:41:59.714Z,-1.92
2023-02-26T20:44:27.623Z,-2.04
2023-02-26T20:46:55.603Z,-1.83
2023-02-26T20:49:24.817Z,-1.82
2023-02-26T20:51:52.614Z,-1.71
2023-02-26T20:54:22.261Z,-1.70
2023-02-26T20:56:51.874Z,-1.72
2023-02-26T20:59:20.338Z,-1.86
2023-02-26T21:01:51.393Z,-1.78
2023-02-26T21:04:19.840Z,-2.73
2023-02-26T21:06:47.816Z,-1.95
2023-02-26T21:09:15.858Z,-1.79
2023-02-26T21:11:44.009Z,-1.81
2023-02-26T21:14:13.373Z,-1.83
2023-02-26T21:16:41.964Z,-1.92
2023-02-26T21:19:09.860Z,-1.86
2023-02-26T21:21:37.715Z,-1.86
2023-02-26T21:24:06.217Z,-1.97
2023-02-26T21:26:35.257Z,-1.89
2023-02-26T21:29:04.955Z,-1.98
2023-02-26T21:31:34.992Z,-1.90
2023-02-26T21:34:29.960Z,-1.88
2023-02-26T21:36:51.256Z,-1.89
2023-02-26T21:39:19.172Z,-2.01
2023-02-26T21:41:47.001Z,-1.92
2023-02-26T21:44:14.998Z,-1.93
2023-02-26T21:46:44.369Z,-1.93
2023-02-26T21:49:12.191Z,-2.04
2023-02-26T21:51:40.010Z,-1.94
2023-02-26T21:54:08.148Z,-1.98
2023-02-26T21:56:35.987Z,-1.98
2023-02-26T21:59:03.894Z,-1.99
2023-02-26T22:01:31.934Z,-2.02
2023-02-26T22:04:01.156Z,-2.03
2023-02-26T22:06:29.221Z,-2.20
2023-02-26T22:08:57.307Z,-2.12
2023-02-26T22:11:25.372Z,-2.02
2023-02-26T22:13:53.442Z,-2.01
2023-02-26T22:16:21.572Z,-2.01
2023-02-26T22:18:49.483Z,-2.02
2023-02-26T22:21:18.860Z,-2.16
2023-02-26T22:23:46.915Z,-2.06
2023-02-26T22:26:14.904Z,-2.10
2023-02-26T22:28:42.837Z,-2.13
2023-02-26T22:31:11.491Z,-2.17
2023-02-26T22:33:39.607Z,-2.21
2023-02-26T22:36:08.470Z,-2.57
2023-02-26T22:38:38.026Z,-2.26
2023-02-26T22:41:06.161Z,-2.20
2023-02-26T22:43:34.125Z,-2.17
2023-02-26T22:46:02.663Z,-2.32
2023-02-26T22:48:30.478Z,-2.16
2023-02-26T22:50:58.463Z,-2.17
2023-02-26T22:53:26.496Z,-2.21
2023-02-26T22:55:55.732Z,-2.23
2023-02-26T22:58:23.592Z,-2.25
2023-02-26T23:00:52.917Z,-2.34
2023-02-26T23:03:20.781Z,-2.26
2023-02-26T23:05:48.705Z,-2.43
2023-02-26T23:08:16.726Z,-2.35
2023-02-26T23:10:46.256Z,-2.42
2023-02-26T23:13:15.996Z,-2.55
2023-02-26T23:15:44.006Z,-2.36
2023-02-26T23:18:11.834Z,-2.40
2023-02-26T23:20:39.950Z,-2.56
2023-02-26T23:23:08.128Z,-2.59
2023-02-26T23:25:35.999Z,-2.38
2023-02-26T23:28:03.899Z,-2.41
2023-02-26T23:30:34.241Z,-2.42
2023-02-26T23:33:02.380Z,-2.49
2023-02-26T23:35:30.219Z,-2.44
2023-02-26T23:37:58.377Z,-2.42
2023-02-26T23:40:26.363Z,-2.45
2023-02-26T23:42:54.267Z,-2.44
2023-02-26T23:45:22.272Z,-2.66
2023-02-26T23:47:51.831Z,-2.53
2023-02-26T23:50:20.681Z,-2.51
2023-02-26T23:52:48.691Z,-2.38
2023-02-26T23:55:16.685Z,-2.36
2023-02-26T23:57:44.990Z,-2.33
